createdAt,value
2022-08-28T04:03:16.803Z,0.00
2022-08-28T04:04:16.741Z,0.00
2022-08-28T04:05:16.730Z,0.00
2022-08-28T04:06:16.720Z,0.00
2022-08-28T04:07:16.713Z,0.00
2022-08-28T04:11:16.668Z,0.00
2022-08-28T04:12:16.656Z,0.00
2022-08-28T04:13:16.649Z,0.00
2022-08-28T04:15:16.630Z,0.00
2022-08-28T04:16:16.803Z,0.00
2022-08-28T04:17:16.607Z,0.00
2022-08-28T04:18:16.595Z,0.00
2022-08-28T04:19:16.585Z,0.00
2022-08-28T04:20:16.575Z,0.00
2022-08-28T04:21:16.566Z,0.00
2022-08-28T04:22:16.557Z,0.00
2022-08-28T04:23:16.545Z,0.00
2022-08-28T04:24:16.536Z,0.00
2022-08-28T04:25:16.528Z,0.00
2022-08-28T04:26:16.513Z,0.00
2022-08-28T04:27:16.505Z,0.00
2022-08-28T04:28:16.495Z,0.00
2022-08-28T04:29:16.582Z,0.00
2022-08-28T04:30:16.471Z,0.00
2022-08-28T04:31:16.517Z,0.00
2022-08-28T04:32:16.555Z,0.00
2022-08-28T04:33:16.444Z,0.00
2022-08-28T04:34:16.433Z,0.00
2022-08-28T04:35:16.424Z,0.00
2022-08-28T04:36:16.415Z,0.00
2022-08-28T04:37:16.399Z,0.00
2022-08-28T04:38:16.422Z,0.00
2022-08-28T04:39:16.382Z,0.00
2022-08-28T04:40:16.441Z,0.00
2022-08-28T04:41:16.361Z,0.00
2022-08-28T04:42:16.350Z,5.62
2022-08-28T04:43:16.339Z,5.62
2022-08-28T04:44:16.330Z,5.62
2022-08-28T04:45:16.318Z,5.62
2022-08-28T04:46:16.382Z,5.62
2022-08-28T04:47:16.299Z,5.62
2022-08-28T04:48:16.639Z,5.62
2022-08-28T04:49:16.278Z,5.62
2022-08-28T04:50:16.269Z,5.62
2022-08-28T04:51:16.257Z,11.25
2022-08-28T04:52:16.249Z,11.25
2022-08-28T04:53:16.238Z,11.25
2022-08-28T04:54:16.228Z,11.25
2022-08-28T04:55:16.215Z,11.25
2022-08-28T04:56:16.208Z,11.25
2022-08-28T04:57:16.195Z,11.25
2022-08-28T04:58:16.184Z,16.87
2022-08-28T04:59:16.177Z,16.87
2022-08-28T05:00:16.165Z,16.87
2022-08-28T05:01:16.274Z,16.87
2022-08-28T05:02:16.220Z,16.87
2022-08-28T05:03:16.132Z,16.87
2022-08-28T05:04:16.127Z,16.87
2022-08-28T05:05:16.112Z,22.50
2022-08-28T05:06:16.101Z,22.50
2022-08-28T05:07:16.091Z,22.50
2022-08-28T05:08:16.083Z,22.50
2022-08-28T05:09:16.074Z,22.50
2022-08-28T05:10:16.063Z,28.12
2022-08-28T05:11:32.645Z,28.12
2022-08-28T05:12:16.041Z,28.12
2022-08-28T05:13:16.029Z,28.12
2022-08-28T05:14:16.476Z,28.12
2022-08-28T05:15:16.029Z,33.75
2022-08-28T05:16:16.037Z,33.75
2022-08-28T05:17:15.990Z,33.75
2022-08-28T05:18:15.980Z,33.75
2022-08-28T05:19:16.167Z,33.75
2022-08-28T05:20:15.959Z,33.75
2022-08-28T05:21:15.947Z,33.75
2022-08-28T05:22:15.941Z,39.37
2022-08-28T05:23:15.924Z,39.37
2022-08-28T05:24:15.917Z,39.37
2022-08-28T05:25:15.905Z,39.37
2022-08-28T05:26:15.896Z,39.37
2022-08-28T05:27:15.885Z,39.37
2022-08-28T05:28:15.874Z,39.37
2022-08-28T05:29:15.860Z,39.37
2022-08-28T05:30:15.853Z,45.00
2022-08-28T05:31:15.890Z,45.00
2022-08-28T05:32:15.829Z,45.00
2022-08-28T05:33:15.820Z,45.00
2022-08-28T05:34:15.809Z,45.00
2022-08-28T05:35:15.810Z,45.00
2022-08-28T05:36:15.786Z,45.00
2022-08-28T05:37:19.560Z,45.00
2022-08-28T05:38:15.764Z,45.00
2022-08-28T05:39:15.753Z,45.00
2022-08-28T05:40:15.832Z,45.00
2022-08-28T05:41:15.735Z,45.00
2022-08-28T05:42:15.719Z,45.00
2022-08-28T05:43:15.713Z,45.00
2022-08-28T05:44:15.700Z,50.62
2022-08-28T05:45:15.689Z,50.62
2022-08-28T05:46:15.726Z,50.62
2022-08-28T05:47:15.666Z,50.62
2022-08-28T05:48:15.657Z,50.62
2022-08-28T05:49:15.646Z,56.25
2022-08-28T05:50:15.635Z,56.25
2022-08-28T05:51:15.624Z,56.25
2022-08-28T05:52:15.616Z,56.25
2022-08-28T05:53:15.607Z,61.87
2022-08-28T05:54:15.592Z,61.87
2022-08-28T05:55:15.581Z,61.87
2022-08-28T05:56:15.584Z,61.87
2022-08-28T05:57:15.559Z,67.50
2022-08-28T05:58:15.550Z,67.50
2022-08-28T05:59:15.537Z,67.50
2022-08-28T06:00:15.528Z,67.50
2022-08-28T06:01:15.520Z,73.12
2022-08-28T06:02:15.557Z,73.12
2022-08-28T06:03:15.499Z,73.12
2022-08-28T06:04:15.552Z,73.12
2022-08-28T06:05:15.479Z,73.12
2022-08-28T06:06:15.461Z,78.75
2022-08-28T06:07:15.452Z,78.75
2022-08-28T06:08:15.443Z,78.75
2022-08-28T06:09:15.428Z,78.75
2022-08-28T06:10:15.420Z,78.75
2022-08-28T06:11:15.409Z,78.75
2022-08-28T06:12:15.399Z,78.75
2022-08-28T06:13:15.387Z,84.37
2022-08-28T06:14:15.721Z,84.37
2022-08-28T06:15:15.367Z,84.37
2022-08-28T06:16:15.395Z,84.37
2022-08-28T06:17:15.347Z,84.37
2022-08-28T06:18:15.336Z,84.37
2022-08-28T06:19:15.327Z,84.37
2022-08-28T06:20:15.316Z,84.37
2022-08-28T06:21:15.303Z,84.37
2022-08-28T06:22:15.295Z,90.00
2022-08-28T06:23:15.284Z,90.00
2022-08-28T06:24:16.295Z,90.00
2022-08-28T06:25:15.264Z,90.00
2022-08-28T06:26:15.252Z,90.00
2022-08-28T06:27:15.241Z,90.00
2022-08-28T06:28:15.232Z,90.00
2022-08-28T06:29:15.220Z,90.00
2022-08-28T06:30:15.209Z,90.00
2022-08-28T06:31:23.587Z,95.62
2022-08-28T06:32:16.269Z,95.62
2022-08-28T06:33:15.179Z,95.62
2022-08-28T06:34:15.171Z,95.62
2022-08-28T06:35:15.157Z,95.62
2022-08-28T06:36:15.149Z,95.62
2022-08-28T06:37:15.138Z,95.62
2022-08-28T06:38:15.294Z,95.62
2022-08-28T06:39:15.118Z,95.62
2022-08-28T06:40:15.195Z,101.25
2022-08-28T06:41:15.097Z,101.25
2022-08-28T06:42:15.088Z,101.25
2022-08-28T06:43:15.078Z,101.25
2022-08-28T06:44:15.067Z,101.25
2022-08-28T06:45:15.054Z,101.25
2022-08-28T06:46:15.209Z,106.87
2022-08-28T06:47:15.034Z,106.87
2022-08-28T06:48:15.024Z,106.87
2022-08-28T06:49:15.013Z,106.87
2022-08-28T06:50:15.001Z,106.87
2022-08-28T06:51:14.989Z,106.87
2022-08-28T06:52:14.981Z,112.50
2022-08-28T06:53:14.972Z,112.50
2022-08-28T06:54:19.675Z,112.50
2022-08-28T06:55:14.952Z,118.12
2022-08-28T06:56:25.710Z,123.75
2022-08-28T06:57:14.930Z,129.37
2022-08-28T06:58:15.092Z,129.37
2022-08-28T06:59:14.910Z,129.37
2022-08-28T07:00:14.900Z,129.37
2022-08-28T07:01:14.953Z,129.37
2022-08-28T07:02:15.000Z,129.37
2022-08-28T07:03:14.865Z,129.37
2022-08-28T07:04:14.921Z,135.00
2022-08-28T07:05:14.846Z,135.00
2022-08-28T07:06:14.838Z,135.00
2022-08-28T07:07:31.260Z,135.00
2022-08-28T07:08:15.839Z,135.00
2022-08-28T07:09:14.805Z,135.00
2022-08-28T07:10:14.793Z,135.00
2022-08-28T07:11:14.785Z,140.62
2022-08-28T07:12:14.777Z,140.62
2022-08-28T07:13:14.764Z,140.62
2022-08-28T07:14:14.759Z,140.62
2022-08-28T07:15:14.746Z,146.25
2022-08-28T07:16:14.796Z,146.25
2022-08-28T07:17:14.721Z,151.87
2022-08-28T07:18:14.711Z,157.50
2022-08-28T07:19:14.703Z,174.37
2022-08-28T07:20:14.691Z,185.62
2022-08-28T07:21:14.680Z,191.25
2022-08-28T07:22:14.669Z,196.87
2022-08-28T07:23:14.662Z,202.50
2022-08-28T07:24:14.673Z,196.87
2022-08-28T07:25:14.637Z,196.87
2022-08-28T07:26:14.625Z,191.25
2022-08-28T07:27:18.789Z,185.62
2022-08-28T07:28:14.832Z,185.62
2022-08-28T07:29:14.607Z,185.62
2022-08-28T07:30:14.586Z,185.62
2022-08-28T07:31:14.723Z,185.62
2022-08-28T07:32:14.565Z,185.62
2022-08-28T07:33:14.551Z,185.62
2022-08-28T07:34:14.543Z,185.62
2022-08-28T07:35:14.533Z,185.62
2022-08-28T07:36:16.073Z,185.62
2022-08-28T07:37:15.533Z,185.62
2022-08-28T07:38:14.712Z,191.25
2022-08-28T07:39:14.491Z,191.25
2022-08-28T07:40:14.508Z,191.25
2022-08-28T07:41:14.471Z,191.25
2022-08-28T07:42:14.463Z,191.25
2022-08-28T07:43:14.454Z,191.25
2022-08-28T07:44:14.437Z,191.25
2022-08-28T07:45:14.434Z,191.25
2022-08-28T07:46:14.517Z,191.25
2022-08-28T07:47:14.413Z,196.87
2022-08-28T07:48:14.662Z,196.87
2022-08-28T07:49:14.391Z,202.50
2022-08-28T07:50:14.377Z,202.50
2022-08-28T07:51:14.369Z,202.50
2022-08-28T07:52:14.359Z,202.50
2022-08-28T07:53:14.363Z,202.50
2022-08-28T07:54:15.614Z,202.50
2022-08-28T07:55:14.327Z,208.12
2022-08-28T07:56:14.317Z,208.12
2022-08-28T07:57:14.307Z,208.12
2022-08-28T07:58:14.476Z,213.75
2022-08-28T07:59:17.020Z,219.37
2022-08-28T08:00:14.278Z,219.37
2022-08-28T08:01:14.305Z,219.37
2022-08-28T08:02:14.261Z,219.37
2022-08-28T08:03:14.431Z,225.00
2022-08-28T08:04:14.237Z,230.62
2022-08-28T08:05:14.386Z,236.25
2022-08-28T08:06:14.218Z,236.25
2022-08-28T08:07:14.207Z,230.62
2022-08-28T08:08:14.420Z,230.62
2022-08-28T08:09:14.195Z,230.62
2022-08-28T08:10:14.179Z,230.62
2022-08-28T08:11:16.540Z,230.62
2022-08-28T08:12:14.158Z,230.62
2022-08-28T08:13:14.144Z,236.25
2022-08-28T08:14:14.135Z,236.25
2022-08-28T08:15:14.124Z,230.62
2022-08-28T08:16:14.196Z,236.25
2022-08-28T08:17:14.106Z,236.25
2022-08-28T08:18:14.232Z,241.87
2022-08-28T08:19:14.148Z,247.50
2022-08-28T08:20:14.074Z,247.50
2022-08-28T08:21:14.066Z,241.87
2022-08-28T08:22:14.053Z,241.87
2022-08-28T08:23:14.046Z,241.87
2022-08-28T08:24:19.396Z,241.87
2022-08-28T08:25:14.024Z,241.87
2022-08-28T08:26:14.014Z,241.87
2022-08-28T08:27:14.003Z,236.25
2022-08-28T08:28:14.054Z,230.62
2022-08-28T08:29:13.985Z,236.25
2022-08-28T08:30:13.979Z,236.25
2022-08-28T08:31:14.016Z,241.87
2022-08-28T08:32:13.955Z,241.87
2022-08-28T08:33:13.942Z,236.25
2022-08-28T08:34:13.933Z,236.25
2022-08-28T08:35:13.922Z,230.62
2022-08-28T08:36:13.914Z,230.62
2022-08-28T08:37:13.905Z,225.00
2022-08-28T08:38:14.055Z,225.00
2022-08-28T08:39:13.883Z,230.62
2022-08-28T08:40:13.902Z,230.62
2022-08-28T08:41:13.862Z,230.62
2022-08-28T08:42:13.854Z,230.62
2022-08-28T08:43:13.844Z,230.62
2022-08-28T08:44:13.834Z,230.62
2022-08-28T08:45:13.822Z,236.25
2022-08-28T08:46:13.838Z,236.25
2022-08-28T08:47:15.203Z,236.25
2022-08-28T08:48:13.961Z,236.25
2022-08-28T08:49:13.787Z,236.25
2022-08-28T08:50:13.780Z,236.25
2022-08-28T08:51:13.766Z,236.25
2022-08-28T08:52:13.760Z,236.25
2022-08-28T08:53:13.745Z,241.87
2022-08-28T08:54:13.738Z,241.87
2022-08-28T08:55:15.121Z,241.87
2022-08-28T08:56:13.717Z,241.87
2022-08-28T08:57:13.706Z,241.87
2022-08-28T08:58:13.958Z,247.50
2022-08-28T08:59:13.690Z,247.50
2022-08-28T09:00:16.123Z,247.50
2022-08-28T09:01:13.712Z,247.50
2022-08-28T09:02:13.658Z,253.12
2022-08-28T09:03:13.727Z,253.12
2022-08-28T09:04:15.813Z,253.12
2022-08-28T09:05:13.630Z,258.75
2022-08-28T09:06:13.625Z,258.75
2022-08-28T09:07:13.610Z,247.50
2022-08-28T09:08:13.775Z,258.75
2022-08-28T09:09:13.593Z,258.75
2022-08-28T09:10:13.591Z,264.37
2022-08-28T09:11:13.575Z,264.37
2022-08-28T09:12:13.562Z,270.00
2022-08-28T09:13:13.552Z,270.00
2022-08-28T09:14:13.547Z,270.00
2022-08-28T09:15:13.537Z,270.00
2022-08-28T09:16:13.614Z,270.00
2022-08-28T09:17:13.515Z,275.62
2022-08-28T09:18:13.626Z,275.62
2022-08-28T09:19:13.496Z,281.25
2022-08-28T09:20:13.487Z,281.25
2022-08-28T09:21:13.478Z,286.87
2022-08-28T09:22:13.466Z,286.87
2022-08-28T09:23:14.009Z,286.87
2022-08-28T09:24:13.450Z,292.50
2022-08-28T09:25:13.439Z,309.37
2022-08-28T09:26:13.431Z,315.00
2022-08-28T09:27:14.503Z,331.87
2022-08-28T09:28:13.602Z,331.87
2022-08-28T09:29:13.407Z,331.87
2022-08-28T09:30:13.396Z,326.25
2022-08-28T09:31:13.487Z,326.25
2022-08-28T09:32:13.375Z,326.25
2022-08-28T09:33:13.366Z,326.25
2022-08-28T09:34:13.358Z,326.25
2022-08-28T09:35:13.346Z,326.25
2022-08-28T09:36:13.340Z,331.87
2022-08-28T09:37:13.943Z,331.87
2022-08-28T09:38:13.603Z,337.50
2022-08-28T09:39:13.310Z,337.50
2022-08-28T09:40:13.362Z,343.12
2022-08-28T09:41:13.291Z,343.12
2022-08-28T09:42:13.283Z,343.12
2022-08-28T09:43:13.273Z,343.12
2022-08-28T09:44:13.263Z,343.12
2022-08-28T09:45:13.258Z,348.75
2022-08-28T09:46:13.322Z,348.75
2022-08-28T09:47:13.238Z,343.12
2022-08-28T09:48:13.384Z,343.12
2022-08-28T09:49:13.217Z,343.12
2022-08-28T09:50:13.215Z,343.12
2022-08-28T09:51:13.200Z,343.12
2022-08-28T09:52:13.190Z,348.75
2022-08-28T09:53:13.182Z,354.37
2022-08-28T09:54:13.173Z,354.37
2022-08-28T09:55:13.164Z,354.37
2022-08-28T09:56:13.157Z,354.37
2022-08-28T09:57:13.146Z,354.37
2022-08-28T09:58:13.853Z,354.37
2022-08-28T09:59:13.135Z,354.37
2022-08-28T10:00:13.124Z,360.00
2022-08-28T10:01:13.176Z,365.62
2022-08-28T10:02:13.206Z,365.62
2022-08-28T10:03:13.095Z,365.62
2022-08-28T10:04:13.144Z,371.25
2022-08-28T10:05:13.076Z,371.25
2022-08-28T10:06:13.065Z,371.25
2022-08-28T10:07:13.055Z,376.87
2022-08-28T10:08:13.221Z,376.87
2022-08-28T10:09:13.038Z,388.12
2022-08-28T10:10:13.027Z,388.12
2022-08-28T10:11:13.020Z,388.12
2022-08-28T10:12:13.014Z,399.37
2022-08-28T10:13:13.003Z,416.25
2022-08-28T10:14:12.994Z,450.00
2022-08-28T10:15:12.984Z,472.50
2022-08-28T10:16:13.024Z,461.25
2022-08-28T10:17:12.966Z,450.00
2022-08-28T10:18:13.210Z,376.87
2022-08-28T10:19:12.947Z,483.75
2022-08-28T10:20:12.939Z,534.37
2022-08-28T10:21:12.933Z,523.12
2022-08-28T10:22:12.920Z,506.25
2022-08-28T10:23:17.085Z,500.62
2022-08-28T10:24:12.905Z,489.37
2022-08-28T10:25:12.899Z,478.12
2022-08-28T10:26:12.889Z,489.37
2022-08-28T10:27:12.880Z,511.87
2022-08-28T10:28:13.103Z,489.37
2022-08-28T10:29:12.861Z,500.62
2022-08-28T10:30:13.556Z,511.87
2022-08-28T10:31:12.893Z,511.87
2022-08-28T10:32:12.834Z,523.12
2022-08-28T10:33:12.826Z,523.12
2022-08-28T10:34:12.819Z,517.50
2022-08-28T10:35:12.810Z,540.00
2022-08-28T10:36:32.129Z,540.00
2022-08-28T10:37:13.815Z,534.37
2022-08-28T10:38:12.982Z,540.00
2022-08-28T10:39:12.775Z,540.00
2022-08-28T10:40:12.818Z,472.50
2022-08-28T10:41:12.756Z,483.75
2022-08-28T10:42:12.748Z,523.12
2022-08-28T10:43:12.743Z,528.75
2022-08-28T10:44:12.731Z,551.25
2022-08-28T10:45:12.723Z,562.50
2022-08-28T10:46:12.784Z,573.75
2022-08-28T10:47:12.710Z,579.37
2022-08-28T10:48:12.817Z,540.00
2022-08-28T10:49:12.690Z,568.12
2022-08-28T10:50:12.679Z,585.00
2022-08-28T10:51:12.669Z,579.37
2022-08-28T10:52:12.682Z,573.75
2022-08-28T10:53:12.655Z,590.62
2022-08-28T10:54:12.644Z,596.25
2022-08-28T10:55:12.636Z,568.12
2022-08-28T10:56:12.624Z,573.75
2022-08-28T10:57:12.617Z,511.87
2022-08-28T10:58:24.165Z,523.12
2022-08-28T10:59:13.623Z,568.12
2022-08-28T11:00:12.592Z,607.50
2022-08-28T11:01:12.689Z,590.62
2022-08-28T11:02:12.663Z,579.37
2022-08-28T11:03:32.962Z,573.75
2022-08-28T11:04:12.555Z,635.62
2022-08-28T11:05:12.549Z,635.62
2022-08-28T11:06:12.542Z,646.87
2022-08-28T11:07:12.536Z,298.12
2022-08-28T11:08:12.674Z,286.87
2022-08-28T11:09:12.516Z,292.50
2022-08-28T11:10:12.505Z,303.75
2022-08-28T11:11:12.497Z,343.12
2022-08-28T11:12:12.491Z,607.50
2022-08-28T11:13:12.736Z,331.87
2022-08-28T11:14:12.470Z,303.75
2022-08-28T11:15:12.463Z,427.50
2022-08-28T11:16:12.455Z,646.87
2022-08-28T11:17:14.370Z,652.50
2022-08-28T11:18:12.438Z,714.37
2022-08-28T11:19:12.428Z,708.75
2022-08-28T11:20:12.419Z,303.75
2022-08-28T11:21:12.409Z,376.87
2022-08-28T11:22:12.398Z,714.37
2022-08-28T11:23:12.586Z,736.87
2022-08-28T11:24:12.382Z,759.37
2022-08-28T11:25:12.373Z,770.62
2022-08-28T11:26:12.366Z,742.50
2022-08-28T11:27:12.358Z,742.50
2022-08-28T11:28:12.349Z,759.37
2022-08-28T11:29:12.341Z,742.50
2022-08-28T11:30:12.331Z,736.87
2022-08-28T11:31:19.092Z,748.12
2022-08-28T11:32:13.331Z,731.25
2022-08-28T11:33:12.500Z,748.12
2022-08-28T11:34:12.296Z,748.12
2022-08-28T11:35:12.286Z,731.25
2022-08-28T11:36:12.287Z,725.62
2022-08-28T11:37:12.271Z,798.75
2022-08-28T11:38:12.260Z,804.37
2022-08-28T11:39:12.252Z,781.87
2022-08-28T11:40:12.312Z,770.62
2022-08-28T11:41:12.242Z,770.62
2022-08-28T11:42:12.227Z,781.87
2022-08-28T11:43:12.370Z,804.37
2022-08-28T11:44:12.212Z,832.50
2022-08-28T11:45:12.204Z,838.12
2022-08-28T11:46:12.293Z,815.62
2022-08-28T11:47:12.188Z,821.25
2022-08-28T11:48:12.182Z,849.37
2022-08-28T11:49:12.173Z,900.00
2022-08-28T11:50:12.162Z,855.00
2022-08-28T11:51:12.153Z,793.12
2022-08-28T11:52:12.144Z,815.62
2022-08-28T11:53:12.281Z,838.12
2022-08-28T11:56:47.746Z,877.50
2022-08-28T11:56:49.157Z,877.50
2022-08-28T11:57:49.148Z,894.37
2022-08-28T11:58:49.138Z,871.87
2022-08-28T11:59:49.129Z,911.25
2022-08-28T12:00:49.124Z,894.37
2022-08-28T12:01:49.116Z,900.00
2022-08-28T12:02:49.182Z,933.75
2022-08-28T12:04:57.074Z,922.50
2022-08-28T12:04:58.482Z,922.50
2022-08-28T12:14:13.797Z,832.50
2022-08-28T12:14:15.206Z,776.25
2022-08-28T12:15:15.199Z,832.50
2022-08-28T12:16:15.830Z,590.62
2022-08-28T12:17:15.185Z,916.87
2022-08-28T12:18:15.174Z,410.62
2022-08-28T12:19:15.167Z,697.50
2022-08-28T12:20:15.161Z,354.37
2022-08-28T12:21:15.151Z,354.37
2022-08-28T12:22:15.142Z,337.50
2022-08-28T12:23:15.192Z,343.12
2022-08-28T12:24:15.128Z,348.75
2022-08-28T12:25:15.120Z,348.75
2022-08-28T12:26:15.111Z,365.62
2022-08-28T12:27:15.101Z,393.75
2022-08-28T12:28:15.092Z,405.00
2022-08-28T12:29:15.085Z,427.50
2022-08-28T12:30:15.078Z,607.50
2022-08-28T12:35:46.942Z,995.62
2022-08-28T13:00:01.987Z,849.37
2022-08-28T13:00:03.368Z,815.62
2022-08-28T13:01:03.428Z,528.75
2022-08-28T13:02:03.550Z,506.25
2022-08-28T13:03:03.339Z,416.25
2022-08-28T13:05:40.474Z,905.62
2022-08-28T13:05:41.882Z,877.50
2022-08-28T13:06:41.879Z,663.75
2022-08-28T13:18:06.657Z,922.50
2022-08-28T13:18:08.034Z,849.37
2022-08-28T13:19:08.030Z,376.87
2022-08-28T13:20:08.475Z,360.00
2022-08-28T13:21:08.012Z,360.00
2022-08-28T13:22:08.005Z,371.25
2022-08-28T13:23:07.997Z,382.50
2022-08-28T13:24:07.993Z,393.75
2022-08-28T13:25:07.980Z,399.37
2022-08-28T13:26:07.975Z,410.62
2022-08-28T13:27:07.963Z,528.75
2022-08-28T13:28:07.955Z,393.75
2022-08-28T13:29:07.943Z,376.87
2022-08-28T13:30:07.940Z,376.87
2022-08-28T13:31:07.992Z,371.25
2022-08-28T13:32:08.024Z,360.00
2022-08-28T13:33:07.910Z,354.37
2022-08-28T13:34:07.903Z,360.00
2022-08-28T13:35:08.097Z,416.25
2022-08-28T13:36:07.887Z,523.12
2022-08-28T13:37:38.214Z,900.00
2022-08-28T13:52:09.573Z,860.62
2022-08-28T13:52:11.003Z,759.37
2022-08-28T13:53:46.441Z,781.87
2022-08-28T13:54:11.190Z,416.25
2022-08-28T13:55:10.980Z,376.87
2022-08-28T13:56:10.972Z,365.62
2022-08-28T13:57:10.962Z,354.37
2022-08-28T13:58:10.953Z,343.12
2022-08-28T13:59:10.948Z,348.75
2022-08-28T14:00:10.935Z,348.75
2022-08-28T14:01:11.008Z,360.00
2022-08-28T14:02:10.969Z,371.25
2022-08-28T14:03:18.630Z,883.12
2022-08-28T16:00:48.366Z,736.87
2022-08-28T16:00:49.854Z,708.75
2022-08-28T16:01:49.848Z,331.87
2022-08-28T16:02:49.776Z,765.00
2022-08-28T16:03:51.719Z,787.50
2022-08-28T16:09:03.148Z,804.37
2022-08-28T16:09:04.560Z,781.87
2022-08-28T16:10:04.553Z,298.12
2022-08-28T16:15:09.050Z,832.50
2022-08-28T16:15:10.459Z,838.12
2022-08-28T16:16:10.480Z,821.25
2022-08-28T16:21:43.980Z,787.50
2022-08-28T16:21:45.394Z,781.87
2022-08-28T16:22:45.384Z,781.87
2022-08-28T16:23:45.377Z,720.00
2022-08-28T16:24:45.383Z,703.12
2022-08-28T16:25:45.360Z,731.25
2022-08-28T16:26:45.348Z,748.12
2022-08-28T16:27:45.343Z,736.87
2022-08-28T16:28:45.332Z,736.87
2022-08-28T16:29:45.328Z,703.12
2022-08-28T16:30:45.316Z,703.12
2022-08-28T16:31:45.333Z,708.75
2022-08-28T16:32:46.620Z,731.25
2022-08-28T16:33:45.293Z,697.50
2022-08-28T16:34:45.280Z,658.12
2022-08-28T16:35:47.866Z,641.25
2022-08-28T16:36:45.264Z,641.25
2022-08-28T16:37:45.257Z,646.87
2022-08-28T16:38:45.247Z,618.75
2022-08-28T16:39:45.239Z,528.75
2022-08-28T16:40:45.231Z,495.00
2022-08-28T16:41:45.218Z,495.00
2022-08-28T16:42:51.388Z,483.75
2022-08-28T16:43:46.225Z,511.87
2022-08-28T16:44:45.194Z,455.62
2022-08-28T16:45:45.186Z,450.00
2022-08-28T16:46:45.290Z,511.87
2022-08-28T16:47:45.168Z,545.62
2022-08-28T16:48:45.159Z,450.00
2022-08-28T16:49:45.149Z,393.75
2022-08-28T16:50:45.140Z,472.50
2022-08-28T16:51:45.133Z,483.75
2022-08-28T16:52:45.127Z,438.75
2022-08-28T16:53:45.113Z,444.37
2022-08-28T16:54:48.353Z,450.00
2022-08-28T16:55:45.096Z,466.87
2022-08-28T16:56:45.087Z,348.75
2022-08-28T16:57:45.077Z,365.62
2022-08-28T16:58:45.080Z,466.87
2022-08-28T16:59:45.060Z,466.87
2022-08-28T17:00:52.410Z,450.00
2022-08-28T17:01:45.147Z,416.25
2022-08-28T17:02:45.089Z,399.37
2022-08-28T17:03:45.022Z,382.50
2022-08-28T17:04:45.016Z,337.50
2022-08-28T17:05:45.002Z,140.62
2022-08-28T17:06:44.996Z,123.75
2022-08-28T17:07:44.985Z,123.75
2022-08-28T17:08:44.981Z,118.12
2022-08-28T17:09:44.966Z,106.87
2022-08-28T17:10:44.958Z,101.25
2022-08-28T17:11:44.948Z,95.62
2022-08-28T17:12:45.960Z,84.37
2022-08-28T17:13:44.929Z,78.75
2022-08-28T17:14:44.930Z,73.12
2022-08-28T17:15:44.979Z,67.50
2022-08-28T17:16:44.905Z,61.87
2022-08-28T17:17:44.891Z,56.25
2022-08-28T17:18:48.242Z,56.25
2022-08-28T17:19:45.893Z,50.62
2022-08-28T17:20:44.867Z,50.62
2022-08-28T17:21:44.855Z,45.00
2022-08-28T17:22:44.844Z,45.00
2022-08-28T17:23:44.836Z,45.00
2022-08-28T17:24:44.828Z,39.37
2022-08-28T17:25:44.819Z,39.37
2022-08-28T17:26:44.810Z,39.37
2022-08-28T17:27:44.796Z,33.75
2022-08-28T17:28:44.787Z,33.75
2022-08-28T17:29:44.780Z,33.75
2022-08-28T17:30:44.765Z,33.75
2022-08-28T17:31:44.795Z,28.12
2022-08-28T17:32:44.747Z,28.12
2022-08-28T17:33:44.739Z,28.12
2022-08-28T17:34:44.732Z,28.12
2022-08-28T17:35:44.720Z,28.12
2022-08-28T17:36:44.708Z,22.50
2022-08-28T17:37:44.700Z,22.50
2022-08-28T17:38:44.688Z,22.50
2022-08-28T17:39:44.674Z,22.50
2022-08-28T17:40:44.722Z,22.50
2022-08-28T17:41:44.657Z,22.50
2022-08-28T17:42:44.645Z,22.50
2022-08-28T17:43:44.640Z,16.87
2022-08-28T17:44:44.631Z,16.87
2022-08-28T17:45:44.620Z,16.87
2022-08-28T17:46:45.259Z,16.87
2022-08-28T17:47:45.206Z,16.87
2022-08-28T17:48:47.901Z,16.87
2022-08-28T17:49:45.601Z,16.87
2022-08-28T17:50:44.571Z,16.87
2022-08-28T17:51:44.600Z,11.25
2022-08-28T17:52:44.548Z,11.25
2022-08-28T17:53:44.538Z,11.25
2022-08-28T17:54:44.530Z,11.25
2022-08-28T17:55:44.521Z,11.25
2022-08-28T17:56:44.508Z,11.25
2022-08-28T17:57:44.496Z,11.25
2022-08-28T17:58:44.491Z,11.25
2022-08-28T18:00:12.159Z,5.62
2022-08-28T18:01:12.145Z,5.62
2022-08-28T18:02:12.190Z,5.62
2022-08-28T18:03:12.128Z,5.62
2022-08-28T18:04:12.211Z,5.62
2022-08-28T18:05:12.105Z,5.62
2022-08-28T18:06:12.095Z,5.62
2022-08-28T18:07:12.086Z,5.62
2022-08-28T18:08:12.174Z,5.62
2022-08-28T18:09:12.068Z,0.00
2022-08-28T18:10:12.060Z,0.00
2022-08-28T18:11:12.045Z,0.00
2022-08-28T18:12:12.535Z,0.00
2022-08-28T18:13:12.024Z,0.00
2022-08-28T18:14:12.013Z,0.00
2022-08-28T18:15:12.003Z,0.00
2022-08-28T18:16:12.083Z,0.00
2022-08-28T18:17:11.984Z,0.00
2022-08-28T18:18:12.127Z,0.00
2022-08-28T18:19:11.963Z,0.00
2022-08-28T18:20:11.952Z,0.00
2022-08-28T18:21:11.945Z,0.00
2022-08-28T18:22:11.934Z,0.00
2022-08-28T18:23:11.923Z,0.00
2022-08-28T18:24:11.914Z,0.00
2022-08-28T18:25:11.902Z,0.00
2022-08-28T18:26:11.895Z,0.00
2022-08-28T18:27:11.886Z,0.00
2022-08-28T18:28:11.876Z,0.00
2022-08-28T18:29:11.865Z,0.00
2022-08-28T18:30:11.851Z,0.00
2022-08-28T18:31:11.924Z,0.00
2022-08-28T18:32:11.833Z,0.00
2022-08-28T18:33:11.823Z,0.00
2022-08-28T18:34:11.818Z,0.00
2022-08-28T18:35:11.804Z,0.00
2022-08-28T18:36:11.793Z,0.00
2022-08-28T18:37:11.786Z,0.00
2022-08-28T18:40:11.809Z,0.00
2022-08-28T18:41:11.742Z,0.00
2022-08-28T18:42:11.732Z,0.00
2022-08-28T18:43:11.722Z,0.00
2022-08-28T18:47:11.682Z,0.00
2022-08-28T18:48:11.670Z,0.00
2022-08-28T18:49:11.659Z,0.00
2022-08-28T18:50:11.649Z,0.00
2022-08-28T18:51:11.641Z,0.00
2022-08-28T21:11:10.161Z,0.00
2022-08-28T21:15:10.122Z,0.00
2022-08-28T21:21:10.064Z,0.00
2022-08-28T21:22:10.044Z,0.00
2022-08-28T21:23:10.037Z,0.00
2022-08-28T21:25:10.014Z,0.00
2022-08-28T21:26:10.000Z,0.00
2022-08-28T21:27:09.992Z,0.00
2022-08-28T21:31:09.974Z,0.00
2022-08-28T21:32:09.939Z,0.00
2022-08-28T21:33:09.929Z,0.00
2022-08-28T21:37:09.891Z,0.00
2022-08-28T21:38:09.877Z,0.00
2022-08-28T21:41:09.846Z,0.00
2022-08-28T21:53:09.718Z,0.00
2022-08-28T21:55:09.694Z,0.00
2022-08-28T21:56:09.683Z,0.00
2022-08-28T21:57:09.675Z,0.00
2022-08-28T21:58:09.665Z,0.00
2022-08-28T22:03:09.610Z,0.00
2022-08-28T22:04:09.599Z,0.00
2022-08-28T22:05:09.588Z,0.00
2022-08-28T22:06:09.581Z,0.00
2022-08-28T22:07:09.568Z,0.00
2022-08-28T22:08:09.557Z,0.00
2022-08-28T22:09:09.545Z,0.00
2022-08-28T22:20:09.427Z,0.00
2022-08-28T23:48:08.503Z,0.00
2022-08-28T23:49:08.495Z,0.00
2022-08-28T23:50:08.480Z,0.00
2022-08-28T23:51:08.474Z,0.00
2022-08-28T23:52:08.460Z,0.00
2022-08-28T23:53:08.455Z,0.00
2022-08-28T23:54:08.440Z,0.00
2022-08-28T23:55:08.428Z,0.00
2022-08-28T23:56:08.419Z,0.00
2022-08-28T23:57:08.415Z,0.00
2022-08-28T23:58:08.476Z,0.00
2022-08-28T23:59:08.390Z,0.00
